• Join FlightAware (Why Join?)
  • Login
  • US Flag 
05:53PM EDT


 

Airport Tracker/Info


-or-


 

Live Flight TrackerFlight Track Log ✈ GPD20 ✈ 31-Aug-2013 ✈ KMVY

Flight Track Log - Related Links

Times and Time Zones

All times are in EDT time to prevent confusion due to time zone crossing. See the GPD20 flight status page for this flight to view local times or setup timezone preferences in your user account.

Time Position Orientation Groundspeed Altitude Reporting Facility
EDT Latitude Longitude Course Direction KTS MPH feet Rate Location/Type
07:48PM -19.3013 -160.8948 130° Southeast  Level Estimated
07:49PM -19.2769 -160.8637 50° Northeast  Level Estimated
07:50PM -19.2525 -160.8325 50° Northeast  Level Estimated
07:51PM -19.2280 -160.8014 50° Northeast  Level Estimated
07:52PM -19.2036 -160.7702 50° Northeast  Level Estimated
07:53PM -19.1792 -160.7391 50° Northeast  Level Estimated
07:54PM -19.1547 -160.7080 50° Northeast  Level Estimated
07:55PM -19.1313 -160.6782 50° Northeast  Level Estimated
07:56PM -19.1079 -160.6485 50° Northeast  Level Estimated
07:57PM -19.0845 -160.6187 50° Northeast  Level Estimated
07:58PM -19.0610 -160.5889 50° Northeast  Level Estimated
07:59PM -19.0376 -160.5592 50° Northeast  Level Estimated
08:00PM -19.0142 -160.5294 50° Northeast  Level Estimated
08:01PM -18.9907 -160.4997 50° Northeast  Level Estimated
08:02PM -18.9673 -160.4700 50° Northeast  Level Estimated
08:03PM -18.9438 -160.4403 50° Northeast  Level Estimated
08:04PM -18.9204 -160.4106 50° Northeast  Level Estimated
08:05PM -18.8969 -160.3809 50° Northeast  Level Estimated
08:06PM -18.8734 -160.3512 50° Northeast  Level Estimated
08:07PM -18.8500 -160.3215 50° Northeast  Level Estimated
08:08PM -18.8265 -160.2918 50° Northeast  Level Estimated
08:09PM -18.8030 -160.2622 50° Northeast  Level Estimated
08:10PM -18.7795 -160.2325 50° Northeast  Level Estimated
08:11PM -18.7560 -160.2029 50° Northeast  Level Estimated
08:12PM -18.7325 -160.1732 50° Northeast  Level Estimated
08:13PM -18.7090 -160.1436 50° Northeast  Level Estimated
08:14PM -18.6855 -160.1140 50° Northeast  Level Estimated
08:15PM -18.6620 -160.0844 50° Northeast  Level Estimated
08:16PM -18.6385 -160.0548 50° Northeast  Level Estimated
08:17PM -18.6150 -160.0252 50° Northeast  Level Estimated
08:18PM -18.5915 -159.9956 50° Northeast  Level Estimated
08:19PM -18.5679 -159.9660 50° Northeast  Level Estimated
08:20PM -18.5444 -159.9364 50° Northeast  Level Estimated
08:21PM -18.5209 -159.9068 50° Northeast  Level Estimated
08:22PM -18.4973 -159.8773 50° Northeast  Level Estimated
08:23PM -18.4738 -159.8477 50° Northeast  Level Estimated
08:24PM -18.4502 -159.8182 50° Northeast  Level Estimated
08:25PM -18.4267 -159.7887 50° Northeast  Level Estimated
08:26PM -18.4031 -159.7592 50° Northeast  Level Estimated
08:27PM -18.3796 -159.7296 50° Northeast  Level Estimated
08:28PM -18.3560 -159.7001 50° Northeast  Level Estimated
08:29PM -18.3324 -159.6706 50° Northeast  Level Estimated
08:30PM -18.3088 -159.6411 50° Northeast  Level Estimated
08:31PM -18.2853 -159.6116 50° Northeast  Level Estimated
08:32PM -18.2617 -159.5822 50° Northeast  Level Estimated
08:33PM -18.2381 -159.5527 50° Northeast  Level Estimated
08:34PM -18.2145 -159.5232 50° Northeast  Level Estimated
08:35PM -18.1909 -159.4938 50° Northeast  Level Estimated
08:36PM -18.1673 -159.4644 50° Northeast  Level Estimated
08:37PM -18.1437 -159.4349 50° Northeast  Level Estimated
08:38PM -18.1201 -159.4055 50° Northeast  Level Estimated
08:39PM -18.0964 -159.3761 50° Northeast  Level Estimated
08:40PM -18.0728 -159.3466 50° Northeast  Level Estimated
08:41PM -18.0492 -159.3172 50° Northeast  Level Estimated
08:42PM -18.0256 -159.2878 50° Northeast  Level Estimated
08:43PM -18.0019 -159.2585 50° Northeast  Level Estimated
08:44PM -17.9783 -159.2291 50° Northeast  Level Estimated
08:45PM -17.9546 -159.1997 50° Northeast  Level Estimated
08:46PM -17.9310 -159.1703 50° Northeast  Level Estimated
08:47PM -17.9073 -159.1410 50° Northeast  Level Estimated
08:48PM -17.8837 -159.1116 50° Northeast  Level Estimated
08:49PM -17.8600 -159.0823 50° Northeast  Level Estimated
08:50PM -17.8363 -159.0529 50° Northeast  Level Estimated
08:51PM -17.8127 -159.0236 50° Northeast  Level Estimated
08:52PM -17.7890 -158.9943 50° Northeast  Level Estimated
08:53PM -17.7653 -158.9650 50° Northeast  Level Estimated
08:54PM -17.7416 -158.9357 50° Northeast  Level Estimated
08:55PM -17.7180 -158.9064 50° Northeast  Level Estimated
08:56PM -17.6943 -158.8771 50° Northeast  Level Estimated
08:57PM -17.6706 -158.8478 50° Northeast  Level Estimated
08:58PM -17.6469 -158.8185 50° Northeast  Level Estimated
08:59PM -17.6231 -158.7893 50° Northeast  Level Estimated
09:00PM -17.5994 -158.7600 50° Northeast  Level Estimated
09:01PM -17.5757 -158.7308 50° Northeast  Level Estimated
09:02PM -17.5520 -158.7015 50° Northeast  Level Estimated
09:03PM -17.5283 -158.6723 50° Northeast  Level Estimated
09:04PM -17.5046 -158.6431 50° Northeast  Level Estimated
09:05PM -17.4808 -158.6139 50° Northeast  Level Estimated
09:06PM -17.4571 -158.5847 50° Northeast  Level Estimated
09:07PM -17.4333 -158.5555 50° Northeast  Level Estimated
09:08PM -17.4096 -158.5262 50° Northeast  Level Estimated
09:09PM -17.3859 -158.4971 50° Northeast  Level Estimated
09:10PM -17.3621 -158.4679 50° Northeast  Level Estimated
09:11PM -17.3384 -158.4387 50° Northeast  Level Estimated
09:12PM -17.3146 -158.4095 50° Northeast  Level Estimated
09:13PM -17.2908 -158.3804 50° Northeast  Level Estimated
09:14PM -17.2670 -158.3512 50° Northeast  Level Estimated
09:15PM -17.2433 -158.3221 50° Northeast  Level Estimated
09:16PM -17.2195 -158.2930 49° Northeast  Level Estimated
09:17PM -17.1957 -158.2638 49° Northeast  Level Estimated
09:18PM -17.1719 -158.2347 49° Northeast  Level Estimated
09:19PM -17.1481 -158.2056 49° Northeast  Level Estimated
09:20PM -17.1243 -158.1765 49° Northeast  Level Estimated
09:21PM -17.1005 -158.1474 49° Northeast  Level Estimated
09:22PM -17.0767 -158.1183 49° Northeast  Level Estimated
09:23PM -17.0529 -158.0892 49° Northeast  Level Estimated
09:24PM -17.0291 -158.0601 49° Northeast  Level Estimated
09:25PM -17.0053 -158.0311 49° Northeast  Level Estimated
09:26PM -16.9815 -158.0020 49° Northeast  Level Estimated
09:27PM -16.9577 -157.9729 49° Northeast  Level Estimated
09:28PM -16.9338 -157.9439 49° Northeast  Level Estimated
09:29PM -16.9100 -157.9149 49° Northeast  Level Estimated
09:30PM -16.8862 -157.8858 49° Northeast  Level Estimated
09:31PM -16.8623 -157.8568 49° Northeast  Level Estimated
09:32PM -16.8385 -157.8278 49° Northeast  Level Estimated
09:33PM -16.8146 -157.7988 49° Northeast  Level Estimated
09:34PM -16.7908 -157.7698 49° Northeast  Level Estimated
09:35PM -16.7669 -157.7408 49° Northeast  Level Estimated
09:36PM -16.7431 -157.7118 49° Northeast  Level Estimated
09:37PM -16.7192 -157.6828 49° Northeast  Level Estimated
09:38PM -16.6953 -157.6539 49° Northeast  Level Estimated
09:39PM -16.6715 -157.6249 49° Northeast  Level Estimated
09:40PM -16.6476 -157.5959 49° Northeast  Level Estimated
09:41PM -16.6237 -157.5670 49° Northeast  Level Estimated